sensor_id;sensor_type;location;lat;lon;timestamp;temperature;humidity
48206;DHT22;33995;48.202;16.260;2024-02-14T00:00:54;2.20;99.90
48206;DHT22;33995;48.202;16.260;2024-02-14T00:03:22;2.10;99.90
48206;DHT22;33995;48.202;16.260;2024-02-14T00:05:50;2.10;99.90
48206;DHT22;33995;48.202;16.260;2024-02-14T00:08:19;2.10;99.90
48206;DHT22;33995;48.202;16.260;2024-02-14T00:10:47;2.10;99.90
48206;DHT22;33995;48.202;16.260;2024-02-14T00:13:15;2.00;99.90
48206;DHT22;33995;48.202;16.260;2024-02-14T00:15:45;2.00;99.90
48206;DHT22;33995;48.202;16.260;2024-02-14T00:18:13;2.10;99.90
48206;DHT22;33995;48.202;16.260;2024-02-14T00:20:42;2.00;99.90
48206;DHT22;33995;48.202;16.260;2024-02-14T00:23:09;2.00;99.90
48206;DHT22;33995;48.202;16.260;2024-02-14T00:25:37;2.00;99.90
48206;DHT22;33995;48.202;16.260;2024-02-14T00:28:04;1.90;99.90
48206;DHT22;33995;48.202;16.260;2024-02-14T00:30:32;1.90;99.90
48206;DHT22;33995;48.202;16.260;2024-02-14T00:32:59;1.90;99.90
48206;DHT22;33995;48.202;16.260;2024-02-14T00:35:26;1.90;99.90
48206;DHT22;33995;48.202;16.260;2024-02-14T00:37:54;2.00;99.90
48206;DHT22;33995;48.202;16.260;2024-02-14T00:40:21;2.00;99.90
48206;DHT22;33995;48.202;16.260;2024-02-14T00:42:48;1.90;99.90
48206;DHT22;33995;48.202;16.260;2024-02-14T00:45:15;2.00;99.90
48206;DHT22;33995;48.202;16.260;2024-02-14T00:47:41;2.00;99.90
48206;DHT22;33995;48.202;16.260;2024-02-14T00:50:09;2.10;99.90
48206;DHT22;33995;48.202;16.260;2024-02-14T00:52:36;2.10;99.90
48206;DHT22;33995;48.202;16.260;2024-02-14T00:55:03;2.00;99.90
48206;DHT22;33995;48.202;16.260;2024-02-14T00:57:31;2.00;99.90
48206;DHT22;33995;48.202;16.260;2024-02-14T00:59:59;2.00;99.90
48206;DHT22;33995;48.202;16.260;2024-02-14T01:02:27;1.90;99.90
48206;DHT22;33995;48.202;16.260;2024-02-14T01:04:54;2.00;99.90
48206;DHT22;33995;48.202;16.260;2024-02-14T01:07:21;2.10;99.90
48206;DHT22;33995;48.202;16.260;2024-02-14T01:09:48;2.10;99.90
48206;DHT22;33995;48.202;16.260;2024-02-14T01:12:16;2.10;99.90
48206;DHT22;33995;48.202;16.260;2024-02-14T01:14:44;2.10;99.90
48206;DHT22;33995;48.202;16.260;2024-02-14T01:17:11;2.10;99.90
48206;DHT22;33995;48.202;16.260;2024-02-14T01:19:38;2.00;99.90
48206;DHT22;33995;48.202;16.260;2024-02-14T01:22:05;1.90;99.90
48206;DHT22;33995;48.202;16.260;2024-02-14T01:24:35;2.00;99.90
48206;DHT22;33995;48.202;16.260;2024-02-14T01:27:03;1.90;99.90
48206;DHT22;33995;48.202;16.260;2024-02-14T01:29:30;1.90;99.90
48206;DHT22;33995;48.202;16.260;2024-02-14T01:31:57;1.80;99.90
48206;DHT22;33995;48.202;16.260;2024-02-14T01:34:24;1.80;99.90
48206;DHT22;33995;48.202;16.260;2024-02-14T01:36:52;1.90;99.90
48206;DHT22;33995;48.202;16.260;2024-02-14T01:39:18;1.90;99.90
48206;DHT22;33995;48.202;16.260;2024-02-14T01:41:47;1.90;99.90
48206;DHT22;33995;48.202;16.260;2024-02-14T01:44:16;1.90;99.90
48206;DHT22;33995;48.202;16.260;2024-02-14T01:46:44;1.90;99.90
48206;DHT22;33995;48.202;16.260;2024-02-14T01:49:11;1.80;99.90
48206;DHT22;33995;48.202;16.260;2024-02-14T01:51:40;1.80;99.90
48206;DHT22;33995;48.202;16.260;2024-02-14T01:54:09;1.80;99.90
48206;DHT22;33995;48.202;16.260;2024-02-14T01:56:37;1.80;99.90
48206;DHT22;33995;48.202;16.260;2024-02-14T01:59:05;1.80;99.90
48206;DHT22;33995;48.202;16.260;2024-02-14T02:01:33;1.80;99.90
48206;DHT22;33995;48.202;16.260;2024-02-14T02:04:02;1.70;99.90
48206;DHT22;33995;48.202;16.260;2024-02-14T02:06:31;1.80;99.90
48206;DHT22;33995;48.202;16.260;2024-02-14T02:08:59;1.70;99.90
48206;DHT22;33995;48.202;16.260;2024-02-14T02:11:26;1.70;99.90
48206;DHT22;33995;48.202;16.260;2024-02-14T02:13:53;1.70;99.90
48206;DHT22;33995;48.202;16.260;2024-02-14T02:16:20;1.70;99.90
48206;DHT22;33995;48.202;16.260;2024-02-14T02:18:48;1.70;99.90
48206;DHT22;33995;48.202;16.260;2024-02-14T02:21:16;1.70;99.90
48206;DHT22;33995;48.202;16.260;2024-02-14T02:23:47;1.70;99.90
48206;DHT22;33995;48.202;16.260;2024-02-14T02:26:14;1.60;99.90
48206;DHT22;33995;48.202;16.260;2024-02-14T02:28:41;1.70;99.90
48206;DHT22;33995;48.202;16.260;2024-02-14T02:31:09;1.60;99.90
48206;DHT22;33995;48.202;16.260;2024-02-14T02:33:37;1.60;99.90
48206;DHT22;33995;48.202;16.260;2024-02-14T02:36:05;1.60;99.90
48206;DHT22;33995;48.202;16.260;2024-02-14T02:38:33;1.50;99.90
48206;DHT22;33995;48.202;16.260;2024-02-14T02:41:00;1.60;99.90
48206;DHT22;33995;48.202;16.260;2024-02-14T02:43:27;1.60;99.90
48206;DHT22;33995;48.202;16.260;2024-02-14T02:45:55;1.60;99.90
48206;DHT22;33995;48.202;16.260;2024-02-14T02:48:24;1.60;99.90
48206;DHT22;33995;48.202;16.260;2024-02-14T02:50:52;1.40;99.90
48206;DHT22;33995;48.202;16.260;2024-02-14T02:53:19;1.50;99.90
48206;DHT22;33995;48.202;16.260;2024-02-14T02:55:46;1.50;99.90
48206;DHT22;33995;48.202;16.260;2024-02-14T02:58:13;1.40;99.90
48206;DHT22;33995;48.202;16.260;2024-02-14T03:00:43;1.40;99.90
48206;DHT22;33995;48.202;16.260;2024-02-14T03:03:10;1.40;99.90
48206;DHT22;33995;48.202;16.260;2024-02-14T03:05:37;1.40;99.90
48206;DHT22;33995;48.202;16.260;2024-02-14T03:08:06;1.50;99.90
48206;DHT22;33995;48.202;16.260;2024-02-14T03:10:34;1.40;99.90
48206;DHT22;33995;48.202;16.260;2024-02-14T03:13:01;1.40;99.90
48206;DHT22;33995;48.202;16.260;2024-02-14T03:15:28;1.40;99.90
48206;DHT22;33995;48.202;16.260;2024-02-14T03:17:56;1.30;99.90
48206;DHT22;33995;48.202;16.260;2024-02-14T03:20:23;1.20;99.90
48206;DHT22;33995;48.202;16.260;2024-02-14T03:22:50;1.30;99.90
48206;DHT22;33995;48.202;16.260;2024-02-14T03:25:18;1.20;99.90
48206;DHT22;33995;48.202;16.260;2024-02-14T03:27:45;1.20;99.90
48206;DHT22;33995;48.202;16.260;2024-02-14T03:30:15;1.30;99.90
48206;DHT22;33995;48.202;16.260;2024-02-14T03:32:45;1.30;99.90
48206;DHT22;33995;48.202;16.260;2024-02-14T03:35:13;1.20;99.90
48206;DHT22;33995;48.202;16.260;2024-02-14T03:37:45;1.10;99.90
48206;DHT22;33995;48.202;16.260;2024-02-14T03:40:15;1.20;99.90
48206;DHT22;33995;48.202;16.260;2024-02-14T03:42:43;1.10;99.90
48206;DHT22;33995;48.202;16.260;2024-02-14T03:45:10;1.20;99.90
48206;DHT22;33995;48.202;16.260;2024-02-14T03:47:38;1.20;99.90
48206;DHT22;33995;48.202;16.260;2024-02-14T03:50:09;1.20;99.90
48206;DHT22;33995;48.202;16.260;2024-02-14T03:52:36;1.20;99.90
48206;DHT22;33995;48.202;16.260;2024-02-14T03:55:04;1.20;99.90
48206;DHT22;33995;48.202;16.260;2024-02-14T03:57:32;1.10;99.90
48206;DHT22;33995;48.202;16.260;2024-02-14T04:00:00;1.10;99.90
48206;DHT22;33995;48.202;16.260;2024-02-14T04:02:38;1.20;99.90
48206;DHT22;33995;48.202;16.260;2024-02-14T04:05:07;1.10;99.90
48206;DHT22;33995;48.202;16.260;2024-02-14T04:07:35;1.00;99.90
48206;DHT22;33995;48.202;16.260;2024-02-14T04:10:04;1.00;99.90
48206;DHT22;33995;48.202;16.260;2024-02-14T04:12:31;1.00;99.90
48206;DHT22;33995;48.202;16.260;2024-02-14T04:14:58;1.10;99.90
48206;DHT22;33995;48.202;16.260;2024-02-14T04:17:26;1.10;99.90
48206;DHT22;33995;48.202;16.260;2024-02-14T04:19:53;1.10;99.90
48206;DHT22;33995;48.202;16.260;2024-02-14T04:22:20;1.10;99.90
48206;DHT22;33995;48.202;16.260;2024-02-14T04:24:48;1.10;99.90
48206;DHT22;33995;48.202;16.260;2024-02-14T04:27:14;1.20;99.90
48206;DHT22;33995;48.202;16.260;2024-02-14T04:29:45;1.00;99.90
48206;DHT22;33995;48.202;16.260;2024-02-14T04:32:14;0.90;99.90
48206;DHT22;33995;48.202;16.260;2024-02-14T04:34:41;1.00;99.90
48206;DHT22;33995;48.202;16.260;2024-02-14T04:37:10;1.00;99.90
48206;DHT22;33995;48.202;16.260;2024-02-14T04:39:40;1.10;99.90
48206;DHT22;33995;48.202;16.260;2024-02-14T04:42:07;1.10;99.90
48206;DHT22;33995;48.202;16.260;2024-02-14T04:44:34;1.20;99.90
48206;DHT22;33995;48.202;16.260;2024-02-14T04:47:01;1.20;99.90
48206;DHT22;33995;48.202;16.260;2024-02-14T04:49:28;1.20;99.90
48206;DHT22;33995;48.202;16.260;2024-02-14T04:51:57;1.10;99.90
48206;DHT22;33995;48.202;16.260;2024-02-14T04:54:24;1.20;99.90
48206;DHT22;33995;48.202;16.260;2024-02-14T04:56:53;1.20;99.90
48206;DHT22;33995;48.202;16.260;2024-02-14T04:59:25;1.20;99.90
48206;DHT22;33995;48.202;16.260;2024-02-14T05:01:52;1.20;99.90
48206;DHT22;33995;48.202;16.260;2024-02-14T05:04:21;1.20;99.90
48206;DHT22;33995;48.202;16.260;2024-02-14T05:06:48;1.20;99.90
48206;DHT22;33995;48.202;16.260;2024-02-14T05:09:17;1.20;99.90
48206;DHT22;33995;48.202;16.260;2024-02-14T05:11:44;1.20;99.90
48206;DHT22;33995;48.202;16.260;2024-02-14T05:14:11;1.20;99.90
48206;DHT22;33995;48.202;16.260;2024-02-14T05:16:38;1.30;99.90
48206;DHT22;33995;48.202;16.260;2024-02-14T05:19:06;1.30;99.90
48206;DHT22;33995;48.202;16.260;2024-02-14T05:21:33;1.30;99.90
48206;DHT22;33995;48.202;16.260;2024-02-14T05:24:00;1.30;99.90
48206;DHT22;33995;48.202;16.260;2024-02-14T05:26:27;1.30;99.90
48206;DHT22;33995;48.202;16.260;2024-02-14T05:28:54;1.40;99.90
48206;DHT22;33995;48.202;16.260;2024-02-14T05:31:21;1.40;99.90
48206;DHT22;33995;48.202;16.260;2024-02-14T05:33:48;1.40;99.90
48206;DHT22;33995;48.202;16.260;2024-02-14T05:36:16;1.50;99.90
48206;DHT22;33995;48.202;16.260;2024-02-14T05:38:43;1.40;99.90
48206;DHT22;33995;48.202;16.260;2024-02-14T05:41:10;1.40;99.90
48206;DHT22;33995;48.202;16.260;2024-02-14T05:43:38;1.40;99.90
48206;DHT22;33995;48.202;16.260;2024-02-14T05:46:05;1.30;99.90
48206;DHT22;33995;48.202;16.260;2024-02-14T05:48:32;1.20;99.90
48206;DHT22;33995;48.202;16.260;2024-02-14T05:50:59;1.20;99.90
48206;DHT22;33995;48.202;16.260;2024-02-14T05:53:26;1.20;99.90
48206;DHT22;33995;48.202;16.260;2024-02-14T05:55:53;1.20;99.90
48206;DHT22;33995;48.202;16.260;2024-02-14T05:58:20;1.10;99.90
48206;DHT22;33995;48.202;16.260;2024-02-14T06:00:47;1.10;99.90
48206;DHT22;33995;48.202;16.260;2024-02-14T06:03:15;1.10;99.90
48206;DHT22;33995;48.202;16.260;2024-02-14T06:05:42;1.10;99.90
48206;DHT22;33995;48.202;16.260;2024-02-14T06:08:09;1.30;99.90
48206;DHT22;33995;48.202;16.260;2024-02-14T06:10:36;1.10;99.90
48206;DHT22;33995;48.202;16.260;2024-02-14T06:13:05;1.20;99.90
48206;DHT22;33995;48.202;16.260;2024-02-14T06:15:32;1.20;99.90
48206;DHT22;33995;48.202;16.260;2024-02-14T06:17:59;1.20;99.90
48206;DHT22;33995;48.202;16.260;2024-02-14T06:20:26;1.10;99.90
48206;DHT22;33995;48.202;16.260;2024-02-14T06:22:54;1.10;99.90
48206;DHT22;33995;48.202;16.260;2024-02-14T06:25:31;1.10;99.90
48206;DHT22;33995;48.202;16.260;2024-02-14T06:27:58;1.20;99.90
48206;DHT22;33995;48.202;16.260;2024-02-14T06:30:25;1.10;99.90
48206;DHT22;33995;48.202;16.260;2024-02-14T06:32:56;1.00;99.90
48206;DHT22;33995;48.202;16.260;2024-02-14T06:35:29;1.10;99.90
48206;DHT22;33995;48.202;16.260;2024-02-14T06:37:57;1.20;99.90
48206;DHT22;33995;48.202;16.260;2024-02-14T06:40:30;1.10;99.90
48206;DHT22;33995;48.202;16.260;2024-02-14T06:42:58;1.10;99.90
48206;DHT22;33995;48.202;16.260;2024-02-14T06:45:27;1.20;99.90
48206;DHT22;33995;48.202;16.260;2024-02-14T06:47:55;1.20;99.90
48206;DHT22;33995;48.202;16.260;2024-02-14T06:50:22;1.20;99.90
48206;DHT22;33995;48.202;16.260;2024-02-14T06:52:52;1.30;99.90
48206;DHT22;33995;48.202;16.260;2024-02-14T06:55:19;1.40;99.90
48206;DHT22;33995;48.202;16.260;2024-02-14T06:57:46;1.50;99.90
48206;DHT22;33995;48.202;16.260;2024-02-14T07:00:13;1.50;99.90
48206;DHT22;33995;48.202;16.260;2024-02-14T07:02:41;1.50;99.90
48206;DHT22;33995;48.202;16.260;2024-02-14T07:05:10;1.40;99.90
48206;DHT22;33995;48.202;16.260;2024-02-14T07:07:41;1.60;99.90
48206;DHT22;33995;48.202;16.260;2024-02-14T07:10:08;1.70;99.90
48206;DHT22;33995;48.202;16.260;2024-02-14T07:12:36;1.80;99.90
48206;DHT22;33995;48.202;16.260;2024-02-14T07:15:05;1.90;99.90
48206;DHT22;33995;48.202;16.260;2024-02-14T07:17:32;2.00;99.90
48206;DHT22;33995;48.202;16.260;2024-02-14T07:20:01;2.00;99.90
48206;DHT22;33995;48.202;16.260;2024-02-14T07:22:28;2.20;99.90
48206;DHT22;33995;48.202;16.260;2024-02-14T07:25:25;2.30;99.90
48206;DHT22;33995;48.202;16.260;2024-02-14T07:28:44;2.40;99.90
48206;DHT22;33995;48.202;16.260;2024-02-14T07:31:11;2.30;99.90
48206;DHT22;33995;48.202;16.260;2024-02-14T07:33:38;2.40;99.90
48206;DHT22;33995;48.202;16.260;2024-02-14T07:36:05;2.40;99.90
48206;DHT22;33995;48.202;16.260;2024-02-14T07:38:32;2.50;99.90
48206;DHT22;33995;48.202;16.260;2024-02-14T07:40:59;2.50;99.90
48206;DHT22;33995;48.202;16.260;2024-02-14T07:43:26;2.60;99.90
48206;DHT22;33995;48.202;16.260;2024-02-14T07:45:54;2.70;99.90
48206;DHT22;33995;48.202;16.260;2024-02-14T07:48:21;2.80;99.90
48206;DHT22;33995;48.202;16.260;2024-02-14T07:50:49;2.80;99.90
48206;DHT22;33995;48.202;16.260;2024-02-14T07:53:16;2.90;99.90
48206;DHT22;33995;48.202;16.260;2024-02-14T07:55:43;2.90;99.90
48206;DHT22;33995;48.202;16.260;2024-02-14T07:58:10;3.00;99.90
48206;DHT22;33995;48.202;16.260;2024-02-14T08:00:38;3.10;99.90
48206;DHT22;33995;48.202;16.260;2024-02-14T08:03:05;3.10;99.90
48206;DHT22;33995;48.202;16.260;2024-02-14T08:05:35;3.20;99.90
48206;DHT22;33995;48.202;16.260;2024-02-14T08:08:03;3.20;99.90
48206;DHT22;33995;48.202;16.260;2024-02-14T08:10:30;3.40;99.90
48206;DHT22;33995;48.202;16.260;2024-02-14T08:12:57;3.50;99.90
48206;DHT22;33995;48.202;16.260;2024-02-14T08:15:25;3.50;99.90
48206;DHT22;33995;48.202;16.260;2024-02-14T08:17:52;3.50;99.90
48206;DHT22;33995;48.202;16.260;2024-02-14T08:20:36;3.50;99.90
48206;DHT22;33995;48.202;16.260;2024-02-14T08:23:03;3.60;99.90
48206;DHT22;33995;48.202;16.260;2024-02-14T08:25:30;4.00;99.90
48206;DHT22;33995;48.202;16.260;2024-02-14T08:27:57;4.30;99.90
48206;DHT22;33995;48.202;16.260;2024-02-14T08:30:24;4.60;99.90
48206;DHT22;33995;48.202;16.260;2024-02-14T08:32:51;4.70;99.90
48206;DHT22;33995;48.202;16.260;2024-02-14T08:35:18;4.80;99.90
48206;DHT22;33995;48.202;16.260;2024-02-14T08:37:45;5.10;99.90
48206;DHT22;33995;48.202;16.260;2024-02-14T08:40:12;5.50;99.90
48206;DHT22;33995;48.202;16.260;2024-02-14T08:42:39;5.70;99.90
48206;DHT22;33995;48.202;16.260;2024-02-14T08:45:07;6.00;99.90
48206;DHT22;33995;48.202;16.260;2024-02-14T08:47:35;6.20;99.90
48206;DHT22;33995;48.202;16.260;2024-02-14T08:50:04;6.40;99.90
48206;DHT22;33995;48.202;16.260;2024-02-14T08:52:31;6.60;99.90
48206;DHT22;33995;48.202;16.260;2024-02-14T08:54:59;6.90;99.90
48206;DHT22;33995;48.202;16.260;2024-02-14T08:57:26;7.10;99.90
48206;DHT22;33995;48.202;16.260;2024-02-14T08:59:53;7.40;99.90
48206;DHT22;33995;48.202;16.260;2024-02-14T09:02:20;7.60;99.90
48206;DHT22;33995;48.202;16.260;2024-02-14T09:04:49;7.80;99.90
48206;DHT22;33995;48.202;16.260;2024-02-14T09:07:17;7.60;99.90
48206;DHT22;33995;48.202;16.260;2024-02-14T09:09:44;7.50;99.90
48206;DHT22;33995;48.202;16.260;2024-02-14T09:12:12;7.70;99.90
48206;DHT22;33995;48.202;16.260;2024-02-14T09:14:40;7.80;99.90
48206;DHT22;33995;48.202;16.260;2024-02-14T09:17:07;7.60;99.90
48206;DHT22;33995;48.202;16.260;2024-02-14T09:19:34;7.90;99.90
48206;DHT22;33995;48.202;16.260;2024-02-14T09:22:01;8.00;99.90
48206;DHT22;33995;48.202;16.260;2024-02-14T09:24:28;8.20;99.90
48206;DHT22;33995;48.202;16.260;2024-02-14T09:26:55;8.40;99.90
48206;DHT22;33995;48.202;16.260;2024-02-14T09:29:22;9.10;99.90
48206;DHT22;33995;48.202;16.260;2024-02-14T09:31:50;9.40;99.90
48206;DHT22;33995;48.202;16.260;2024-02-14T09:34:18;9.40;99.90
48206;DHT22;33995;48.202;16.260;2024-02-14T09:36:50;9.80;99.90
48206;DHT22;33995;48.202;16.260;2024-02-14T09:39:20;10.20;99.90
48206;DHT22;33995;48.202;16.260;2024-02-14T09:41:51;10.40;99.90
48206;DHT22;33995;48.202;16.260;2024-02-14T09:44:21;11.00;99.90
48206;DHT22;33995;48.202;16.260;2024-02-14T09:46:48;10.70;99.90
48206;DHT22;33995;48.202;16.260;2024-02-14T09:49:16;10.60;99.90
48206;DHT22;33995;48.202;16.260;2024-02-14T09:51:46;11.00;99.90
48206;DHT22;33995;48.202;16.260;2024-02-14T09:54:17;11.40;99.90
48206;DHT22;33995;48.202;16.260;2024-02-14T09:56:50;11.40;99.90
48206;DHT22;33995;48.202;16.260;2024-02-14T09:59:21;11.40;99.90
48206;DHT22;33995;48.202;16.260;2024-02-14T10:01:49;11.20;99.90
48206;DHT22;33995;48.202;16.260;2024-02-14T10:04:18;10.70;99.90
48206;DHT22;33995;48.202;16.260;2024-02-14T10:06:46;10.60;99.90
48206;DHT22;33995;48.202;16.260;2024-02-14T10:09:13;10.60;99.90
48206;DHT22;33995;48.202;16.260;2024-02-14T10:11:40;10.80;99.90
48206;DHT22;33995;48.202;16.260;2024-02-14T10:14:07;11.30;99.90
48206;DHT22;33995;48.202;16.260;2024-02-14T10:16:36;11.50;99.90
48206;DHT22;33995;48.202;16.260;2024-02-14T10:19:03;11.70;99.90
48206;DHT22;33995;48.202;16.260;2024-02-14T10:21:35;11.90;99.90
48206;DHT22;33995;48.202;16.260;2024-02-14T10:24:02;12.00;99.90
48206;DHT22;33995;48.202;16.260;2024-02-14T10:26:29;12.40;99.90
48206;DHT22;33995;48.202;16.260;2024-02-14T10:28:57;12.80;99.90
48206;DHT22;33995;48.202;16.260;2024-02-14T10:31:25;12.90;99.90
48206;DHT22;33995;48.202;16.260;2024-02-14T10:33:54;13.50;99.90
48206;DHT22;33995;48.202;16.260;2024-02-14T10:36:22;13.70;99.90
48206;DHT22;33995;48.202;16.260;2024-02-14T10:38:50;13.90;99.90
48206;DHT22;33995;48.202;16.260;2024-02-14T10:41:18;15.00;99.90
48206;DHT22;33995;48.202;16.260;2024-02-14T10:43:45;15.60;99.90
48206;DHT22;33995;48.202;16.260;2024-02-14T10:46:19;14.90;99.00
48206;DHT22;33995;48.202;16.260;2024-02-14T10:48:52;15.20;99.80
48206;DHT22;33995;48.202;16.260;2024-02-14T10:51:21;14.80;99.90
48206;DHT22;33995;48.202;16.260;2024-02-14T10:53:49;15.40;99.00
48206;DHT22;33995;48.202;16.260;2024-02-14T10:56:19;15.50;99.10
48206;DHT22;33995;48.202;16.260;2024-02-14T10:58:49;16.20;98.40
48206;DHT22;33995;48.202;16.260;2024-02-14T11:01:22;16.10;98.40
48206;DHT22;33995;48.202;16.260;2024-02-14T11:03:52;16.80;97.30
48206;DHT22;33995;48.202;16.260;2024-02-14T11:06:19;17.40;95.80
48206;DHT22;33995;48.202;16.260;2024-02-14T11:09:01;17.40;96.60
48206;DHT22;33995;48.202;16.260;2024-02-14T11:11:33;17.90;94.30
48206;DHT22;33995;48.202;16.260;2024-02-14T11:14:00;18.00;95.20
48206;DHT22;33995;48.202;16.260;2024-02-14T11:16:28;18.90;93.70
48206;DHT22;33995;48.202;16.260;2024-02-14T11:19:11;19.20;93.30
48206;DHT22;33995;48.202;16.260;2024-02-14T11:21:44;18.00;91.40
48206;DHT22;33995;48.202;16.260;2024-02-14T11:24:14;17.30;92.40
48206;DHT22;33995;48.202;16.260;2024-02-14T11:26:49;17.20;93.20
48206;DHT22;33995;48.202;16.260;2024-02-14T11:29:19;17.40;93.40
48206;DHT22;33995;48.202;16.260;2024-02-14T11:32:00;17.10;93.20
48206;DHT22;33995;48.202;16.260;2024-02-14T11:34:29;17.00;94.00
48206;DHT22;33995;48.202;16.260;2024-02-14T11:37:04;17.40;92.70
48206;DHT22;33995;48.202;16.260;2024-02-14T11:39:35;18.60;91.80
48206;DHT22;33995;48.202;16.260;2024-02-14T11:42:02;18.50;91.10
48206;DHT22;33995;48.202;16.260;2024-02-14T11:44:29;19.50;90.20
48206;DHT22;33995;48.202;16.260;2024-02-14T11:46:57;19.00;91.50
48206;DHT22;33995;48.202;16.260;2024-02-14T11:49:24;19.40;88.50
48206;DHT22;33995;48.202;16.260;2024-02-14T11:51:53;20.50;89.60
48206;DHT22;33995;48.202;16.260;2024-02-14T11:54:20;20.50;83.90
48206;DHT22;33995;48.202;16.260;2024-02-14T11:56:47;21.20;84.40
48206;DHT22;33995;48.202;16.260;2024-02-14T11:59:15;22.40;80.90
48206;DHT22;33995;48.202;16.260;2024-02-14T12:01:46;21.80;84.90
48206;DHT22;33995;48.202;16.260;2024-02-14T12:04:15;21.80;79.80
48206;DHT22;33995;48.202;16.260;2024-02-14T12:06:43;20.40;81.20
48206;DHT22;33995;48.202;16.260;2024-02-14T12:09:11;19.70;81.80
48206;DHT22;33995;48.202;16.260;2024-02-14T12:11:41;19.90;83.00
48206;DHT22;33995;48.202;16.260;2024-02-14T12:14:10;19.70;81.50
48206;DHT22;33995;48.202;16.260;2024-02-14T12:16:38;21.00;83.20
48206;DHT22;33995;48.202;16.260;2024-02-14T12:19:13;20.50;80.10
48206;DHT22;33995;48.202;16.260;2024-02-14T12:21:42;21.30;81.60
48206;DHT22;33995;48.202;16.260;2024-02-14T12:24:14;20.60;79.40
48206;DHT22;33995;48.202;16.260;2024-02-14T12:26:42;21.50;75.80
48206;DHT22;33995;48.202;16.260;2024-02-14T12:29:12;22.20;76.00
48206;DHT22;33995;48.202;16.260;2024-02-14T12:31:40;21.60;76.60
48206;DHT22;33995;48.202;16.260;2024-02-14T12:34:11;20.50;76.70
48206;DHT22;33995;48.202;16.260;2024-02-14T12:36:39;19.50;79.00
48206;DHT22;33995;48.202;16.260;2024-02-14T12:39:06;18.90;81.20
48206;DHT22;33995;48.202;16.260;2024-02-14T12:41:33;19.40;80.60
48206;DHT22;33995;48.202;16.260;2024-02-14T12:44:02;19.20;81.90
48206;DHT22;33995;48.202;16.260;2024-02-14T12:46:29;19.70;81.30
48206;DHT22;33995;48.202;16.260;2024-02-14T12:48:56;18.50;81.30
48206;DHT22;33995;48.202;16.260;2024-02-14T12:51:24;17.70;86.50
48206;DHT22;33995;48.202;16.260;2024-02-14T12:53:56;17.90;85.60
48206;DHT22;33995;48.202;16.260;2024-02-14T12:56:23;17.90;86.50
48206;DHT22;33995;48.202;16.260;2024-02-14T12:58:50;17.60;86.20
48206;DHT22;33995;48.202;16.260;2024-02-14T13:01:17;17.00;89.00
48206;DHT22;33995;48.202;16.260;2024-02-14T13:03:45;17.20;89.00
48206;DHT22;33995;48.202;16.260;2024-02-14T13:06:12;18.70;88.00
48206;DHT22;33995;48.202;16.260;2024-02-14T13:08:41;18.60;86.00
48206;DHT22;33995;48.202;16.260;2024-02-14T13:11:09;17.20;88.80
48206;DHT22;33995;48.202;16.260;2024-02-14T13:13:36;16.60;89.60
48206;DHT22;33995;48.202;16.260;2024-02-14T13:16:04;16.20;89.30
48206;DHT22;33995;48.202;16.260;2024-02-14T13:18:33;15.20;91.40
48206;DHT22;33995;48.202;16.260;2024-02-14T13:21:02;15.00;92.10
48206;DHT22;33995;48.202;16.260;2024-02-14T13:23:30;14.90;92.10
48206;DHT22;33995;48.202;16.260;2024-02-14T13:25:57;15.00;92.20
48206;DHT22;33995;48.202;16.260;2024-02-14T13:28:28;17.10;90.90
48206;DHT22;33995;48.202;16.260;2024-02-14T13:30:56;16.60;90.40
48206;DHT22;33995;48.202;16.260;2024-02-14T13:33:24;16.10;90.40
48206;DHT22;33995;48.202;16.260;2024-02-14T13:35:51;15.90;91.20
48206;DHT22;33995;48.202;16.260;2024-02-14T13:38:18;15.80;91.00
48206;DHT22;33995;48.202;16.260;2024-02-14T13:40:45;16.20;91.10
48206;DHT22;33995;48.202;16.260;2024-02-14T13:43:13;16.20;90.90
48206;DHT22;33995;48.202;16.260;2024-02-14T13:45:44;15.60;90.60
48206;DHT22;33995;48.202;16.260;2024-02-14T13:48:12;14.50;91.80
48206;DHT22;33995;48.202;16.260;2024-02-14T13:50:40;14.00;92.90
48206;DHT22;33995;48.202;16.260;2024-02-14T13:53:08;13.90;93.20
48206;DHT22;33995;48.202;16.260;2024-02-14T13:55:36;13.60;93.40
48206;DHT22;33995;48.202;16.260;2024-02-14T13:58:03;13.60;94.10
48206;DHT22;33995;48.202;16.260;2024-02-14T14:00:30;13.60;93.90
48206;DHT22;33995;48.202;16.260;2024-02-14T14:02:57;13.40;94.10
48206;DHT22;33995;48.202;16.260;2024-02-14T14:05:24;13.30;93.90
48206;DHT22;33995;48.202;16.260;2024-02-14T14:07:51;13.30;94.40
48206;DHT22;33995;48.202;16.260;2024-02-14T14:10:28;13.30;94.60
48206;DHT22;33995;48.202;16.260;2024-02-14T14:12:55;13.10;94.70
48206;DHT22;33995;48.202;16.260;2024-02-14T14:15:23;12.80;94.90
48206;DHT22;33995;48.202;16.260;2024-02-14T14:17:51;12.80;95.50
48206;DHT22;33995;48.202;16.260;2024-02-14T14:20:19;12.70;95.40
48206;DHT22;33995;48.202;16.260;2024-02-14T14:22:47;12.80;95.70
48206;DHT22;33995;48.202;16.260;2024-02-14T14:25:14;12.80;95.30
48206;DHT22;33995;48.202;16.260;2024-02-14T14:27:42;13.00;95.60
48206;DHT22;33995;48.202;16.260;2024-02-14T14:30:10;13.00;95.50
48206;DHT22;33995;48.202;16.260;2024-02-14T14:32:38;12.70;95.60
48206;DHT22;33995;48.202;16.260;2024-02-14T14:35:07;12.60;95.90
48206;DHT22;33995;48.202;16.260;2024-02-14T14:37:37;12.50;96.40
48206;DHT22;33995;48.202;16.260;2024-02-14T14:40:05;12.10;96.10
48206;DHT22;33995;48.202;16.260;2024-02-14T14:42:34;12.20;96.50
48206;DHT22;33995;48.202;16.260;2024-02-14T14:45:01;12.30;97.30
48206;DHT22;33995;48.202;16.260;2024-02-14T14:47:30;12.10;96.40
48206;DHT22;33995;48.202;16.260;2024-02-14T14:49:57;11.90;96.50
48206;DHT22;33995;48.202;16.260;2024-02-14T14:52:24;12.00;97.00
48206;DHT22;33995;48.202;16.260;2024-02-14T14:54:51;12.00;97.10
48206;DHT22;33995;48.202;16.260;2024-02-14T14:57:18;11.90;97.00
48206;DHT22;33995;48.202;16.260;2024-02-14T14:59:45;11.90;96.80
48206;DHT22;33995;48.202;16.260;2024-02-14T15:02:12;12.50;96.70
48206;DHT22;33995;48.202;16.260;2024-02-14T15:04:39;13.30;96.20
48206;DHT22;33995;48.202;16.260;2024-02-14T15:07:07;13.20;96.00
48206;DHT22;33995;48.202;16.260;2024-02-14T15:09:34;12.70;95.80
48206;DHT22;33995;48.202;16.260;2024-02-14T15:12:04;12.30;96.50
48206;DHT22;33995;48.202;16.260;2024-02-14T15:14:32;12.20;96.90
48206;DHT22;33995;48.202;16.260;2024-02-14T15:16:59;12.20;96.40
48206;DHT22;33995;48.202;16.260;2024-02-14T15:19:27;12.60;96.10
48206;DHT22;33995;48.202;16.260;2024-02-14T15:21:54;12.50;96.30
48206;DHT22;33995;48.202;16.260;2024-02-14T15:24:21;12.30;96.50
48206;DHT22;33995;48.202;16.260;2024-02-14T15:26:48;12.30;96.70
48206;DHT22;33995;48.202;16.260;2024-02-14T15:29:27;12.10;96.70
48206;DHT22;33995;48.202;16.260;2024-02-14T15:32:12;12.00;96.80